sensor_id;sensor_type;location;lat;lon;timestamp;temperature;humidity
69225;DHT22;56333;51.306;17.056;2023-09-07T00:01:05;16.70;69.60
69225;DHT22;56333;51.306;17.056;2023-09-07T00:02:30;16.69;69.63
69225;DHT22;56333;51.306;17.056;2023-09-07T00:03:55;16.71;69.63
69225;DHT22;56333;51.306;17.056;2023-09-07T00:05:19;16.75;69.63
69225;DHT22;56333;51.306;17.056;2023-09-07T00:06:44;16.75;69.57
69225;DHT22;56333;51.306;17.056;2023-09-07T00:08:11;16.75;69.43
69225;DHT22;56333;51.306;17.056;2023-09-07T00:11:42;16.71;69.45
69225;DHT22;56333;51.306;17.056;2023-09-07T00:13:09;16.70;69.40
69225;DHT22;56333;51.306;17.056;2023-09-07T00:14:46;16.70;69.47
69225;DHT22;56333;51.306;17.056;2023-09-07T00:16:32;16.70;69.50
69225;DHT22;56333;51.306;17.056;2023-09-07T00:18:08;16.68;69.63
69225;DHT22;56333;51.306;17.056;2023-09-07T00:19:33;16.69;69.80
69225;DHT22;56333;51.306;17.056;2023-09-07T00:20:59;16.70;69.82
69225;DHT22;56333;51.306;17.056;2023-09-07T00:22:24;16.72;69.80
69225;DHT22;56333;51.306;17.056;2023-09-07T00:23:48;16.74;69.70
69225;DHT22;56333;51.306;17.056;2023-09-07T00:25:13;16.75;69.57
69225;DHT22;56333;51.306;17.056;2023-09-07T00:26:37;16.75;69.53
69225;DHT22;56333;51.306;17.056;2023-09-07T00:28:03;16.75;69.45
69225;DHT22;56333;51.306;17.056;2023-09-07T00:29:29;16.76;69.43
69225;DHT22;56333;51.306;17.056;2023-09-07T00:30:53;16.73;69.47
69225;DHT22;56333;51.306;17.056;2023-09-07T00:32:17;16.73;69.47
69225;DHT22;56333;51.306;17.056;2023-09-07T00:33:43;16.72;69.47
69225;DHT22;56333;51.306;17.056;2023-09-07T00:35:09;16.69;69.63
69225;DHT22;56333;51.306;17.056;2023-09-07T00:36:33;16.73;69.72
69225;DHT22;56333;51.306;17.056;2023-09-07T00:37:59;16.73;69.75
69225;DHT22;56333;51.306;17.056;2023-09-07T00:39:24;16.76;69.75
69225;DHT22;56333;51.306;17.056;2023-09-07T00:40:48;16.78;69.60
69225;DHT22;56333;51.306;17.056;2023-09-07T00:42:13;16.81;69.47
69225;DHT22;56333;51.306;17.056;2023-09-07T00:43:39;16.81;69.28
69225;DHT22;56333;51.306;17.056;2023-09-07T00:45:05;16.82;69.20
69225;DHT22;56333;51.306;17.056;2023-09-07T00:46:32;16.83;69.10
69225;DHT22;56333;51.306;17.056;2023-09-07T00:47:56;16.83;69.05
69225;DHT22;56333;51.306;17.056;2023-09-07T00:49:21;16.83;68.95
69225;DHT22;56333;51.306;17.056;2023-09-07T00:50:47;16.83;69.00
69225;DHT22;56333;51.306;17.056;2023-09-07T00:52:12;16.83;69.13
69225;DHT22;56333;51.306;17.056;2023-09-07T00:53:37;16.85;69.22
69225;DHT22;56333;51.306;17.056;2023-09-07T00:55:02;16.87;69.25
69225;DHT22;56333;51.306;17.056;2023-09-07T00:56:28;16.89;69.22
69225;DHT22;56333;51.306;17.056;2023-09-07T00:57:55;16.89;69.10
69225;DHT22;56333;51.306;17.056;2023-09-07T00:59:19;16.93;69.00
69225;DHT22;56333;51.306;17.056;2023-09-07T01:00:44;16.94;68.85
69225;DHT22;56333;51.306;17.056;2023-09-07T01:02:10;16.93;68.78
69225;DHT22;56333;51.306;17.056;2023-09-07T01:03:34;16.93;68.75
69225;DHT22;56333;51.306;17.056;2023-09-07T01:04:59;16.93;68.75
69225;DHT22;56333;51.306;17.056;2023-09-07T01:06:29;16.92;68.68
69225;DHT22;56333;51.306;17.056;2023-09-07T01:08:03;16.92;68.70
69225;DHT22;56333;51.306;17.056;2023-09-07T01:09:38;16.93;68.68
69225;DHT22;56333;51.306;17.056;2023-09-07T01:11:14;16.93;68.82
69225;DHT22;56333;51.306;17.056;2023-09-07T01:12:39;16.93;68.95
69225;DHT22;56333;51.306;17.056;2023-09-07T01:14:03;16.95;69.03
69225;DHT22;56333;51.306;17.056;2023-09-07T01:15:28;16.99;68.90
69225;DHT22;56333;51.306;17.056;2023-09-07T01:16:54;17.00;68.75
69225;DHT22;56333;51.306;17.056;2023-09-07T01:18:20;17.01;68.65
69225;DHT22;56333;51.306;17.056;2023-09-07T01:19:46;17.01;68.57
69225;DHT22;56333;51.306;17.056;2023-09-07T01:21:12;17.00;68.55
69225;DHT22;56333;51.306;17.056;2023-09-07T01:22:37;17.01;68.55
69225;DHT22;56333;51.306;17.056;2023-09-07T01:24:04;17.00;68.53
69225;DHT22;56333;51.306;17.056;2023-09-07T01:25:31;16.99;68.55
69225;DHT22;56333;51.306;17.056;2023-09-07T01:26:57;17.00;68.68
69225;DHT22;56333;51.306;17.056;2023-09-07T01:28:22;17.01;68.78
69225;DHT22;56333;51.306;17.056;2023-09-07T01:29:47;17.02;68.85
69225;DHT22;56333;51.306;17.056;2023-09-07T01:31:14;17.06;68.85
69225;DHT22;56333;51.306;17.056;2023-09-07T01:32:38;17.05;68.80
69225;DHT22;56333;51.306;17.056;2023-09-07T01:34:03;17.07;68.70
69225;DHT22;56333;51.306;17.056;2023-09-07T01:35:29;17.07;68.63
69225;DHT22;56333;51.306;17.056;2023-09-07T01:36:54;17.08;68.53
69225;DHT22;56333;51.306;17.056;2023-09-07T01:38:19;17.05;68.53
69225;DHT22;56333;51.306;17.056;2023-09-07T01:39:44;17.05;68.50
69225;DHT22;56333;51.306;17.056;2023-09-07T01:41:08;17.03;68.45
69225;DHT22;56333;51.306;17.056;2023-09-07T01:42:33;17.01;68.53
69225;DHT22;56333;51.306;17.056;2023-09-07T01:43:58;16.99;68.63
69225;DHT22;56333;51.306;17.056;2023-09-07T01:45:23;16.99;68.75
69225;DHT22;56333;51.306;17.056;2023-09-07T01:46:48;17.00;68.88
69225;DHT22;56333;51.306;17.056;2023-09-07T01:48:14;17.00;68.95
69225;DHT22;56333;51.306;17.056;2023-09-07T01:49:39;17.02;68.95
69225;DHT22;56333;51.306;17.056;2023-09-07T01:51:05;17.03;68.90
69225;DHT22;56333;51.306;17.056;2023-09-07T01:52:46;17.02;68.80
69225;DHT22;56333;51.306;17.056;2023-09-07T01:54:11;17.02;68.72
69225;DHT22;56333;51.306;17.056;2023-09-07T01:55:37;17.02;68.68
69225;DHT22;56333;51.306;17.056;2023-09-07T01:57:03;16.99;68.65
69225;DHT22;56333;51.306;17.056;2023-09-07T01:58:28;16.98;68.70
69225;DHT22;56333;51.306;17.056;2023-09-07T01:59:54;16.96;68.75
69225;DHT22;56333;51.306;17.056;2023-09-07T02:01:22;16.94;68.82
69225;DHT22;56333;51.306;17.056;2023-09-07T02:02:48;16.92;68.97
69225;DHT22;56333;51.306;17.056;2023-09-07T02:04:13;16.91;69.10
69225;DHT22;56333;51.306;17.056;2023-09-07T02:05:38;16.91;69.22
69225;DHT22;56333;51.306;17.056;2023-09-07T02:07:03;16.91;69.25
69225;DHT22;56333;51.306;17.056;2023-09-07T02:08:28;16.92;69.20
69225;DHT22;56333;51.306;17.056;2023-09-07T02:09:52;16.92;69.15
69225;DHT22;56333;51.306;17.056;2023-09-07T02:11:17;16.91;69.07
69225;DHT22;56333;51.306;17.056;2023-09-07T02:12:42;16.91;69.05
69225;DHT22;56333;51.306;17.056;2023-09-07T02:14:08;16.87;69.13
69225;DHT22;56333;51.306;17.056;2023-09-07T02:15:34;16.86;69.13
69225;DHT22;56333;51.306;17.056;2023-09-07T02:17:13;16.81;69.28
69225;DHT22;56333;51.306;17.056;2023-09-07T02:19:01;16.77;69.45
69225;DHT22;56333;51.306;17.056;2023-09-07T02:20:29;16.78;69.55
69225;DHT22;56333;51.306;17.056;2023-09-07T02:21:55;16.79;69.68
69225;DHT22;56333;51.306;17.056;2023-09-07T02:23:26;16.79;69.72
69225;DHT22;56333;51.306;17.056;2023-09-07T02:24:55;16.76;69.60
69225;DHT22;56333;51.306;17.056;2023-09-07T02:26:29;16.75;69.60
69225;DHT22;56333;51.306;17.056;2023-09-07T02:27:55;16.75;69.53
69225;DHT22;56333;51.306;17.056;2023-09-07T02:29:21;16.73;69.45
69225;DHT22;56333;51.306;17.056;2023-09-07T02:30:47;16.71;69.43
69225;DHT22;56333;51.306;17.056;2023-09-07T02:32:13;16.70;69.53
69225;DHT22;56333;51.306;17.056;2023-09-07T02:33:39;16.68;69.63
69225;DHT22;56333;51.306;17.056;2023-09-07T02:35:05;16.66;69.72
69225;DHT22;56333;51.306;17.056;2023-09-07T02:36:32;16.65;69.93
69225;DHT22;56333;51.306;17.056;2023-09-07T02:37:58;16.64;70.03
69225;DHT22;56333;51.306;17.056;2023-09-07T02:39:24;16.65;70.10
69225;DHT22;56333;51.306;17.056;2023-09-07T02:40:50;16.64;70.03
69225;DHT22;56333;51.306;17.056;2023-09-07T02:42:15;16.65;69.95
69225;DHT22;56333;51.306;17.056;2023-09-07T02:43:41;16.62;69.95
69225;DHT22;56333;51.306;17.056;2023-09-07T02:45:09;16.62;69.90
69225;DHT22;56333;51.306;17.056;2023-09-07T02:46:36;16.58;69.95
69225;DHT22;56333;51.306;17.056;2023-09-07T02:48:01;16.56;69.93
69225;DHT22;56333;51.306;17.056;2023-09-07T02:49:28;16.52;70.13
69225;DHT22;56333;51.306;17.056;2023-09-07T02:50:53;16.51;70.25
69225;DHT22;56333;51.306;17.056;2023-09-07T02:52:20;16.48;70.40
69225;DHT22;56333;51.306;17.056;2023-09-07T02:53:45;16.46;70.57
69225;DHT22;56333;51.306;17.056;2023-09-07T02:55:11;16.48;70.68
69225;DHT22;56333;51.306;17.056;2023-09-07T02:56:35;16.48;70.60
69225;DHT22;56333;51.306;17.056;2023-09-07T02:58:25;16.44;70.57
69225;DHT22;56333;51.306;17.056;2023-09-07T02:59:52;16.41;70.45
69225;DHT22;56333;51.306;17.056;2023-09-07T03:01:17;16.39;70.53
69225;DHT22;56333;51.306;17.056;2023-09-07T03:02:43;16.35;70.60
69225;DHT22;56333;51.306;17.056;2023-09-07T03:04:07;16.34;70.63
69225;DHT22;56333;51.306;17.056;2023-09-07T03:05:33;16.32;70.85
69225;DHT22;56333;51.306;17.056;2023-09-07T03:07:00;16.29;71.03
69225;DHT22;56333;51.306;17.056;2023-09-07T03:08:26;16.29;71.20
69225;DHT22;56333;51.306;17.056;2023-09-07T03:09:52;16.27;71.28
69225;DHT22;56333;51.306;17.056;2023-09-07T03:11:18;16.27;71.30
69225;DHT22;56333;51.306;17.056;2023-09-07T03:12:43;16.26;71.32
69225;DHT22;56333;51.306;17.056;2023-09-07T03:14:09;16.24;71.25
69225;DHT22;56333;51.306;17.056;2023-09-07T03:15:33;16.23;71.20
69225;DHT22;56333;51.306;17.056;2023-09-07T03:17:02;16.18;71.18
69225;DHT22;56333;51.306;17.056;2023-09-07T03:18:27;16.16;71.35
69225;DHT22;56333;51.306;17.056;2023-09-07T03:19:53;16.11;71.35
69225;DHT22;56333;51.306;17.056;2023-09-07T03:21:19;16.08;71.53
69225;DHT22;56333;51.306;17.056;2023-09-07T03:22:47;16.06;71.63
69225;DHT22;56333;51.306;17.056;2023-09-07T03:24:13;16.05;71.80
69225;DHT22;56333;51.306;17.056;2023-09-07T03:25:38;16.02;71.97
69225;DHT22;56333;51.306;17.056;2023-09-07T03:27:04;16.02;71.93
69225;DHT22;56333;51.306;17.056;2023-09-07T03:28:29;16.02;71.95
69225;DHT22;56333;51.306;17.056;2023-09-07T03:29:54;16.00;71.88
69225;DHT22;56333;51.306;17.056;2023-09-07T03:31:19;15.98;71.85
69225;DHT22;56333;51.306;17.056;2023-09-07T03:32:44;15.96;71.82
69225;DHT22;56333;51.306;17.056;2023-09-07T03:34:09;15.91;71.90
69225;DHT22;56333;51.306;17.056;2023-09-07T03:35:35;15.89;71.93
69225;DHT22;56333;51.306;17.056;2023-09-07T03:37:00;15.87;72.18
69225;DHT22;56333;51.306;17.056;2023-09-07T03:38:29;15.83;72.32
69225;DHT22;56333;51.306;17.056;2023-09-07T03:39:54;15.82;72.43
69225;DHT22;56333;51.306;17.056;2023-09-07T03:41:19;15.81;72.55
69225;DHT22;56333;51.306;17.056;2023-09-07T03:42:45;15.80;72.63
69225;DHT22;56333;51.306;17.056;2023-09-07T03:44:15;15.79;72.55
69225;DHT22;56333;51.306;17.056;2023-09-07T03:45:41;15.79;72.50
69225;DHT22;56333;51.306;17.056;2023-09-07T03:47:06;15.76;72.53
69225;DHT22;56333;51.306;17.056;2023-09-07T03:48:31;15.73;72.50
69225;DHT22;56333;51.306;17.056;2023-09-07T03:49:56;15.72;72.53
69225;DHT22;56333;51.306;17.056;2023-09-07T03:51:34;15.70;72.65
69225;DHT22;56333;51.306;17.056;2023-09-07T03:53:06;15.68;72.88
69225;DHT22;56333;51.306;17.056;2023-09-07T03:54:31;15.66;72.93
69225;DHT22;56333;51.306;17.056;2023-09-07T03:55:56;15.66;72.85
69225;DHT22;56333;51.306;17.056;2023-09-07T03:57:21;15.66;72.88
69225;DHT22;56333;51.306;17.056;2023-09-07T03:58:45;15.66;72.82
69225;DHT22;56333;51.306;17.056;2023-09-07T04:00:13;15.64;72.75
69225;DHT22;56333;51.306;17.056;2023-09-07T04:01:41;15.61;72.72
69225;DHT22;56333;51.306;17.056;2023-09-07T04:03:07;15.58;72.65
69225;DHT22;56333;51.306;17.056;2023-09-07T04:04:32;15.56;72.65
69225;DHT22;56333;51.306;17.056;2023-09-07T04:05:57;15.53;72.80
69225;DHT22;56333;51.306;17.056;2023-09-07T04:07:21;15.52;73.03
69225;DHT22;56333;51.306;17.056;2023-09-07T04:08:46;15.52;73.20
69225;DHT22;56333;51.306;17.056;2023-09-07T04:10:11;15.51;73.22
69225;DHT22;56333;51.306;17.056;2023-09-07T04:11:35;15.52;73.35
69225;DHT22;56333;51.306;17.056;2023-09-07T04:13:01;15.52;73.30
69225;DHT22;56333;51.306;17.056;2023-09-07T04:14:26;15.53;73.20
69225;DHT22;56333;51.306;17.056;2023-09-07T04:15:53;15.54;73.18
69225;DHT22;56333;51.306;17.056;2023-09-07T04:17:37;15.52;73.13
69225;DHT22;56333;51.306;17.056;2023-09-07T04:19:03;15.48;73.20
69225;DHT22;56333;51.306;17.056;2023-09-07T04:20:28;15.47;73.18
69225;DHT22;56333;51.306;17.056;2023-09-07T04:21:53;15.48;73.25
69225;DHT22;56333;51.306;17.056;2023-09-07T04:23:18;15.45;73.32
69225;DHT22;56333;51.306;17.056;2023-09-07T04:24:43;15.46;73.43
69225;DHT22;56333;51.306;17.056;2023-09-07T04:26:13;15.46;73.43
69225;DHT22;56333;51.306;17.056;2023-09-07T04:27:38;15.48;73.47
69225;DHT22;56333;51.306;17.056;2023-09-07T04:29:03;15.48;73.47
69225;DHT22;56333;51.306;17.056;2023-09-07T04:30:29;15.49;73.50
69225;DHT22;56333;51.306;17.056;2023-09-07T04:31:54;15.52;73.40
69225;DHT22;56333;51.306;17.056;2023-09-07T04:33:18;15.53;73.28
69225;DHT22;56333;51.306;17.056;2023-09-07T04:34:43;15.52;73.25
69225;DHT22;56333;51.306;17.056;2023-09-07T04:36:09;15.52;73.25
69225;DHT22;56333;51.306;17.056;2023-09-07T04:37:35;15.55;73.30
69225;DHT22;56333;51.306;17.056;2023-09-07T04:39:00;15.68;73.30
69225;DHT22;56333;51.306;17.056;2023-09-07T04:40:26;15.88;73.25
69225;DHT22;56333;51.306;17.056;2023-09-07T04:41:50;16.09;73.07
69225;DHT22;56333;51.306;17.056;2023-09-07T04:43:15;16.29;72.72
69225;DHT22;56333;51.306;17.056;2023-09-07T04:44:40;16.41;72.43
69225;DHT22;56333;51.306;17.056;2023-09-07T04:46:05;16.47;72.15
69225;DHT22;56333;51.306;17.056;2023-09-07T04:47:30;16.52;71.70
69225;DHT22;56333;51.306;17.056;2023-09-07T04:48:55;16.54;71.50
69225;DHT22;56333;51.306;17.056;2023-09-07T04:50:19;16.56;71.38
69225;DHT22;56333;51.306;17.056;2023-09-07T04:51:44;16.55;71.22
69225;DHT22;56333;51.306;17.056;2023-09-07T04:53:09;16.56;71.22
69225;DHT22;56333;51.306;17.056;2023-09-07T04:54:33;16.56;71.13
69225;DHT22;56333;51.306;17.056;2023-09-07T04:55:58;16.54;71.07
69225;DHT22;56333;51.306;17.056;2023-09-07T04:57:23;16.53;71.20
69225;DHT22;56333;51.306;17.056;2023-09-07T04:58:47;16.54;71.32
69225;DHT22;56333;51.306;17.056;2023-09-07T05:00:13;16.53;71.53
69225;DHT22;56333;51.306;17.056;2023-09-07T05:01:38;16.55;71.63
69225;DHT22;56333;51.306;17.056;2023-09-07T05:03:03;16.55;71.65
69225;DHT22;56333;51.306;17.056;2023-09-07T05:04:28;16.57;71.70
69225;DHT22;56333;51.306;17.056;2023-09-07T05:05:53;16.59;71.68
69225;DHT22;56333;51.306;17.056;2023-09-07T05:07:18;16.59;71.57
69225;DHT22;56333;51.306;17.056;2023-09-07T05:08:43;16.59;71.55
69225;DHT22;56333;51.306;17.056;2023-09-07T05:10:08;16.59;71.65
69225;DHT22;56333;51.306;17.056;2023-09-07T05:11:34;16.58;71.68
69225;DHT22;56333;51.306;17.056;2023-09-07T05:12:59;16.59;71.75
69225;DHT22;56333;51.306;17.056;2023-09-07T05:14:25;16.60;71.88
69225;DHT22;56333;51.306;17.056;2023-09-07T05:15:52;16.63;72.03
69225;DHT22;56333;51.306;17.056;2023-09-07T05:17:18;16.66;72.18
69225;DHT22;56333;51.306;17.056;2023-09-07T05:18:44;16.69;72.18
69225;DHT22;56333;51.306;17.056;2023-09-07T05:20:12;16.74;72.30
69225;DHT22;56333;51.306;17.056;2023-09-07T05:21:37;16.79;72.22
69225;DHT22;56333;51.306;17.056;2023-09-07T05:23:02;16.82;72.18
69225;DHT22;56333;51.306;17.056;2023-09-07T05:24:30;16.84;72.13
69225;DHT22;56333;51.306;17.056;2023-09-07T05:26:49;16.86;72.20
69225;DHT22;56333;51.306;17.056;2023-09-07T05:28:15;16.89;72.22
69225;DHT22;56333;51.306;17.056;2023-09-07T05:29:41;16.93;72.25
69225;DHT22;56333;51.306;17.056;2023-09-07T05:31:06;16.96;72.35
69225;DHT22;56333;51.306;17.056;2023-09-07T05:32:31;17.01;72.47
69225;DHT22;56333;51.306;17.056;2023-09-07T05:33:57;17.06;72.50
69225;DHT22;56333;51.306;17.056;2023-09-07T05:35:25;17.12;72.50
69225;DHT22;56333;51.306;17.056;2023-09-07T05:36:54;17.19;72.53
69225;DHT22;56333;51.306;17.056;2023-09-07T05:38:20;17.23;72.45
69225;DHT22;56333;51.306;17.056;2023-09-07T05:39:46;17.30;72.38
69225;DHT22;56333;51.306;17.056;2023-09-07T05:41:13;17.35;72.30
69225;DHT22;56333;51.306;17.056;2023-09-07T05:42:45;17.40;72.20
69225;DHT22;56333;51.306;17.056;2023-09-07T05:44:17;17.44;72.15
69225;DHT22;56333;51.306;17.056;2023-09-07T05:45:47;17.48;72.05
69225;DHT22;56333;51.306;17.056;2023-09-07T05:47:11;17.52;72.10
69225;DHT22;56333;51.306;17.056;2023-09-07T05:48:36;17.58;72.15
69225;DHT22;56333;51.306;17.056;2023-09-07T05:50:03;17.66;72.20
69225;DHT22;56333;51.306;17.056;2023-09-07T05:51:29;17.73;72.20
69225;DHT22;56333;51.306;17.056;2023-09-07T05:52:54;17.80;72.10
69225;DHT22;56333;51.306;17.056;2023-09-07T05:54:19;17.86;71.78
69225;DHT22;56333;51.306;17.056;2023-09-07T05:55:45;17.95;71.65
69225;DHT22;56333;51.306;17.056;2023-09-07T05:57:10;18.01;71.45
69225;DHT22;56333;51.306;17.056;2023-09-07T05:58:35;18.08;71.30
69225;DHT22;56333;51.306;17.056;2023-09-07T06:00:01;18.12;71.05
69225;DHT22;56333;51.306;17.056;2023-09-07T06:01:35;18.17;70.85
69225;DHT22;56333;51.306;17.056;2023-09-07T06:03:00;18.24;70.55
69225;DHT22;56333;51.306;17.056;2023-09-07T06:04:26;18.28;70.07
69225;DHT22;56333;51.306;17.056;2023-09-07T06:05:50;18.34;70.10
69225;DHT22;56333;51.306;17.056;2023-09-07T06:07:14;18.39;70.07
69225;DHT22;56333;51.306;17.056;2023-09-07T06:08:39;18.44;70.05
69225;DHT22;56333;51.306;17.056;2023-09-07T06:10:05;18.50;70.03
69225;DHT22;56333;51.306;17.056;2023-09-07T06:11:32;18.57;69.47
69225;DHT22;56333;51.306;17.056;2023-09-07T06:12:57;18.64;69.38
69225;DHT22;56333;51.306;17.056;2023-09-07T06:14:23;18.70;69.22
69225;DHT22;56333;51.306;17.056;2023-09-07T06:15:49;18.77;69.03
69225;DHT22;56333;51.306;17.056;2023-09-07T06:17:14;18.85;68.90
69225;DHT22;56333;51.306;17.056;2023-09-07T06:18:40;18.89;68.68
69225;DHT22;56333;51.306;17.056;2023-09-07T06:20:07;18.94;68.65
69225;DHT22;56333;51.306;17.056;2023-09-07T06:21:34;18.99;68.43
69225;DHT22;56333;51.306;17.056;2023-09-07T06:23:00;19.02;68.13
69225;DHT22;56333;51.306;17.056;2023-09-07T06:24:25;19.08;67.78
69225;DHT22;56333;51.306;17.056;2023-09-07T06:25:50;19.14;67.78
69225;DHT22;56333;51.306;17.056;2023-09-07T06:27:15;19.17;67.55
69225;DHT22;56333;51.306;17.056;2023-09-07T06:28:44;19.22;66.90
69225;DHT22;56333;51.306;17.056;2023-09-07T06:30:15;19.26;66.90
69225;DHT22;56333;51.306;17.056;2023-09-07T06:31:41;19.30;66.28
69225;DHT22;56333;51.306;17.056;2023-09-07T06:33:07;19.35;66.18
69225;DHT22;56333;51.306;17.056;2023-09-07T06:34:32;19.40;65.70
69225;DHT22;56333;51.306;17.056;2023-09-07T06:35:59;19.48;65.53
69225;DHT22;56333;51.306;17.056;2023-09-07T06:37:24;19.53;65.72
69225;DHT22;56333;51.306;17.056;2023-09-07T06:38:50;19.58;65.40
69225;DHT22;56333;51.306;17.056;2023-09-07T06:40:15;19.65;65.55
69225;DHT22;56333;51.306;17.056;2023-09-07T06:41:45;19.69;65.20
69225;DHT22;56333;51.306;17.056;2023-09-07T06:43:11;19.73;65.13
69225;DHT22;56333;51.306;17.056;2023-09-07T06:44:36;19.77;64.57
69225;DHT22;56333;51.306;17.056;2023-09-07T06:46:05;19.81;63.95
69225;DHT22;56333;51.306;17.056;2023-09-07T06:47:33;19.85;63.90
69225;DHT22;56333;51.306;17.056;2023-09-07T06:49:00;19.89;64.03
69225;DHT22;56333;51.306;17.056;2023-09-07T06:50:26;19.92;63.63
69225;DHT22;56333;51.306;17.056;2023-09-07T06:51:51;19.97;63.60
69225;DHT22;56333;51.306;17.056;2023-09-07T06:53:16;20.00;62.92
69225;DHT22;56333;51.306;17.056;2023-09-07T06:54:41;20.06;63.08
69225;DHT22;56333;51.306;17.056;2023-09-07T06:56:05;20.09;62.92
69225;DHT22;56333;51.306;17.056;2023-09-07T06:57:29;20.15;62.30
69225;DHT22;56333;51.306;17.056;2023-09-07T06:58:57;20.17;62.28
69225;DHT22;56333;51.306;17.056;2023-09-07T07:00:23;20.22;61.97
69225;DHT22;56333;51.306;17.056;2023-09-07T07:01:48;20.25;61.85
69225;DHT22;56333;51.306;17.056;2023-09-07T07:03:13;20.29;61.88
69225;DHT22;56333;51.306;17.056;2023-09-07T07:04:37;20.32;61.88
69225;DHT22;56333;51.306;17.056;2023-09-07T07:06:03;20.36;61.60
69225;DHT22;56333;51.306;17.056;2023-09-07T07:07:28;20.41;62.05
69225;DHT22;56333;51.306;17.056;2023-09-07T07:08:54;20.44;62.88
69225;DHT22;56333;51.306;17.056;2023-09-07T07:10:18;20.49;62.47
69225;DHT22;56333;51.306;17.056;2023-09-07T07:11:43;20.50;61.80
69225;DHT22;56333;51.306;17.056;2023-09-07T07:13:10;20.54;62.20
69225;DHT22;56333;51.306;17.056;2023-09-07T07:14:35;20.57;62.28
69225;DHT22;56333;51.306;17.056;2023-09-07T07:16:00;20.61;62.55
69225;DHT22;56333;51.306;17.056;2023-09-07T07:17:26;20.63;61.75
69225;DHT22;56333;51.306;17.056;2023-09-07T07:18:50;20.67;61.78
69225;DHT22;56333;51.306;17.056;2023-09-07T07:20:15;20.71;61.88
69225;DHT22;56333;51.306;17.056;2023-09-07T07:21:40;20.73;62.28
69225;DHT22;56333;51.306;17.056;2023-09-07T07:23:06;20.78;62.33
69225;DHT22;56333;51.306;17.056;2023-09-07T07:24:31;20.81;61.85
69225;DHT22;56333;51.306;17.056;2023-09-07T07:25:56;20.84;61.10
69225;DHT22;56333;51.306;17.056;2023-09-07T07:27:21;20.87;61.60
69225;DHT22;56333;51.306;17.056;2023-09-07T07:28:46;20.91;61.35
69225;DHT22;56333;51.306;17.056;2023-09-07T07:30:11;20.93;61.40
69225;DHT22;56333;51.306;17.056;2023-09-07T07:31:37;20.97;60.22
69225;DHT22;56333;51.306;17.056;2023-09-07T07:33:01;21.01;59.97
69225;DHT22;56333;51.306;17.056;2023-09-07T07:34:27;21.02;59.10
69225;DHT22;56333;51.306;17.056;2023-09-07T07:35:53;21.03;59.03
69225;DHT22;56333;51.306;17.056;2023-09-07T07:37:18;21.06;58.70
69225;DHT22;56333;51.306;17.056;2023-09-07T07:38:44;21.10;58.97
69225;DHT22;56333;51.306;17.056;2023-09-07T07:40:11;21.12;58.75
69225;DHT22;56333;51.306;17.056;2023-09-07T07:41:35;21.15;59.22
69225;DHT22;56333;51.306;17.056;2023-09-07T07:43:00;21.18;58.63
69225;DHT22;56333;51.306;17.056;2023-09-07T07:44:25;21.20;58.63
69225;DHT22;56333;51.306;17.056;2023-09-07T07:45:50;21.24;58.08
69225;DHT22;56333;51.306;17.056;2023-09-07T07:47:18;21.27;58.45
69225;DHT22;56333;51.306;17.056;2023-09-07T07:48:43;21.29;57.85
69225;DHT22;56333;51.306;17.056;2023-09-07T07:50:09;21.32;58.38
69225;DHT22;56333;51.306;17.056;2023-09-07T07:51:33;21.35;58.35
69225;DHT22;56333;51.306;17.056;2023-09-07T07:52:59;21.38;58.55
69225;DHT22;56333;51.306;17.056;2023-09-07T07:54:24;21.41;58.40
69225;DHT22;56333;51.306;17.056;2023-09-07T07:55:51;21.43;58.83
69225;DHT22;56333;51.306;17.056;2023-09-07T07:57:18;21.46;58.47
69225;DHT22;56333;51.306;17.056;2023-09-07T07:58:42;21.52;58.35
69225;DHT22;56333;51.306;17.056;2023-09-07T08:00:10;21.54;57.10
69225;DHT22;56333;51.306;17.056;2023-09-07T08:01:39;21.55;57.08
69225;DHT22;56333;51.306;17.056;2023-09-07T08:03:05;21.58;57.75
69225;DHT22;56333;51.306;17.056;2023-09-07T08:04:32;21.61;57.28
69225;DHT22;56333;51.306;17.056;2023-09-07T08:05:59;21.66;57.53
69225;DHT22;56333;51.306;17.056;2023-09-07T08:07:25;21.70;57.75
69225;DHT22;56333;51.306;17.056;2023-09-07T08:08:50;21.72;56.75
69225;DHT22;56333;51.306;17.056;2023-09-07T08:10:17;21.74;56.85
69225;DHT22;56333;51.306;17.056;2023-09-07T08:11:43;21.77;56.45
69225;DHT22;56333;51.306;17.056;2023-09-07T08:13:08;21.81;56.22
69225;DHT22;56333;51.306;17.056;2023-09-07T08:14:35;21.82;56.20
69225;DHT22;56333;51.306;17.056;2023-09-07T08:16:00;21.84;55.70
69225;DHT22;56333;51.306;17.056;2023-09-07T08:17:24;21.86;56.60
69225;DHT22;56333;51.306;17.056;2023-09-07T08:18:50;21.89;56.20
69225;DHT22;56333;51.306;17.056;2023-09-07T08:20:16;21.91;56.38
69225;DHT22;56333;51.306;17.056;2023-09-07T08:21:42;21.93;56.38
69225;DHT22;56333;51.306;17.056;2023-09-07T08:23:08;21.97;56.55
69225;DHT22;56333;51.306;17.056;2023-09-07T08:24:33;22.00;56.33
69225;DHT22;56333;51.306;17.056;2023-09-07T08:25:58;22.00;56.67
69225;DHT22;56333;51.306;17.056;2023-09-07T08:27:23;22.03;56.80
69225;DHT22;56333;51.306;17.056;2023-09-07T08:28:49;22.05;56.13
69225;DHT22;56333;51.306;17.056;2023-09-07T08:30:15;22.07;56.28
69225;DHT22;56333;51.306;17.056;2023-09-07T08:31:40;22.08;56.58
69225;DHT22;56333;51.306;17.056;2023-09-07T08:33:07;22.12;56.72
69225;DHT22;56333;51.306;17.056;2023-09-07T08:34:32;22.15;56.90
69225;DHT22;56333;51.306;17.056;2023-09-07T08:36:02;22.16;56.05
69225;DHT22;56333;51.306;17.056;2023-09-07T08:37:27;22.17;55.67
69225;DHT22;56333;51.306;17.056;2023-09-07T08:38:52;22.18;56.22
69225;DHT22;56333;51.306;17.056;2023-09-07T08:40:17;22.19;56.22
69225;DHT22;56333;51.306;17.056;2023-09-07T08:41:44;22.21;55.65
69225;DHT22;56333;51.306;17.056;2023-09-07T08:43:09;22.23;55.65
69225;DHT22;56333;51.306;17.056;2023-09-07T08:44:37;22.24;55.88
69225;DHT22;56333;51.306;17.056;2023-09-07T08:46:12;22.25;55.90
69225;DHT22;56333;51.306;17.056;2023-09-07T08:47:39;22.27;56.72
69225;DHT22;56333;51.306;17.056;2023-09-07T08:49:05;22.30;56.33
69225;DHT22;56333;51.306;17.056;2023-09-07T08:50:31;22.31;56.47
69225;DHT22;56333;51.306;17.056;2023-09-07T08:51:58;22.35;56.80
69225;DHT22;56333;51.306;17.056;2023-09-07T08:53:26;22.38;56.80
69225;DHT22;56333;51.306;17.056;2023-09-07T08:54:53;22.40;56.72
69225;DHT22;56333;51.306;17.056;2023-09-07T08:56:20;22.41;56.83
69225;DHT22;56333;51.306;17.056;2023-09-07T08:57:46;22.45;56.88
69225;DHT22;56333;51.306;17.056;2023-09-07T08:59:12;22.47;56.42